createdAt,value
2022-09-24T00:00:01.252Z,15.17
2022-09-24T00:02:32.158Z,17.67
2022-09-24T00:05:01.032Z,17.40
2022-09-24T00:07:30.040Z,16.50
2022-09-24T00:09:58.411Z,18.73
2022-09-24T00:12:28.340Z,15.87
2022-09-24T00:14:57.349Z,15.50
2022-09-24T00:17:26.336Z,17.50
2022-09-24T00:19:55.059Z,14.17
2022-09-24T00:22:28.060Z,15.60
2022-09-24T00:25:22.205Z,15.57
2022-09-24T00:27:51.229Z,18.17
2022-09-24T00:30:20.493Z,17.23
2022-09-24T00:32:49.172Z,14.40
2022-09-24T00:35:20.301Z,19.83
2022-09-24T00:37:48.693Z,19.03
2022-09-24T00:40:18.427Z,15.47
2022-09-24T00:42:47.581Z,16.40
2022-09-24T00:45:16.619Z,18.77
2022-09-24T00:47:53.341Z,14.57
2022-09-24T00:50:33.619Z,13.17
2022-09-24T00:53:06.671Z,15.77
2022-09-24T00:55:37.490Z,18.57
2022-09-24T00:58:08.474Z,17.40
2022-09-24T01:00:39.801Z,16.80
2022-09-24T01:03:17.671Z,14.97
2022-09-24T01:05:46.659Z,13.80
2022-09-24T01:08:18.670Z,13.13
2022-09-24T01:11:30.988Z,15.13
2022-09-24T01:14:27.965Z,13.53
2022-09-24T01:17:20.775Z,11.83
2022-09-24T01:20:16.810Z,16.20
2022-09-24T01:23:13.917Z,15.13
2022-09-24T01:26:08.098Z,12.57
2022-09-24T01:28:53.411Z,14.73
2022-09-24T01:31:31.964Z,16.40
2022-09-24T01:34:05.955Z,15.03
2022-09-24T01:36:38.201Z,14.33
2022-09-24T01:39:08.995Z,17.00
2022-09-24T01:41:39.245Z,15.33
2022-09-24T01:44:08.331Z,17.17
2022-09-24T01:46:40.328Z,20.07
2022-09-24T01:49:09.313Z,15.43
2022-09-24T01:51:51.441Z,15.63
2022-09-24T01:54:36.120Z,16.17
2022-09-24T01:57:20.118Z,17.03
2022-09-24T01:59:52.573Z,18.97
2022-09-24T02:02:29.233Z,18.57
2022-09-24T02:05:03.459Z,14.57
2022-09-24T02:07:38.150Z,17.20
2022-09-24T02:10:10.366Z,17.50
2022-09-24T02:12:43.265Z,15.80
2022-09-24T02:15:18.515Z,18.47
2022-09-24T02:17:48.671Z,14.93
2022-09-24T02:20:22.579Z,16.17
2022-09-24T02:22:52.378Z,15.83
2022-09-24T02:25:25.383Z,17.80
2022-09-24T02:27:54.417Z,18.83
2022-09-24T02:30:23.461Z,18.47
2022-09-24T02:32:52.769Z,15.27
2022-09-24T02:35:21.748Z,20.97
2022-09-24T02:37:50.781Z,16.90
2022-09-24T02:40:19.831Z,16.57
2022-09-24T02:42:50.583Z,20.57
2022-09-24T02:45:19.602Z,18.47
2022-09-24T02:47:48.519Z,22.03
2022-09-24T02:50:17.897Z,17.80
2022-09-24T02:52:46.875Z,16.50
2022-09-24T02:55:14.954Z,18.27
2022-09-24T02:57:43.923Z,23.53
2022-09-24T03:00:14.640Z,20.30
2022-09-24T03:02:43.857Z,17.13
2022-09-24T03:05:12.779Z,21.40
2022-09-24T03:07:42.063Z,19.93
2022-09-24T03:10:12.045Z,18.47
2022-09-24T03:12:42.864Z,20.00
2022-09-24T03:15:12.112Z,16.83
2022-09-24T03:17:39.915Z,19.53
2022-09-24T03:20:08.940Z,19.00
2022-09-24T03:22:37.933Z,17.40
2022-09-24T03:25:07.927Z,17.53
2022-09-24T03:27:36.536Z,18.13
2022-09-24T03:30:23.026Z,19.57
2022-09-24T03:32:52.015Z,19.53
2022-09-24T03:35:21.322Z,16.97
2022-09-24T03:37:50.289Z,21.83
2022-09-24T03:40:20.098Z,20.67
2022-09-24T03:42:49.142Z,18.10
2022-09-24T03:45:18.165Z,17.00
2022-09-24T03:47:46.524Z,20.87
2022-09-24T03:50:15.125Z,20.03
2022-09-24T03:52:44.199Z,17.90
2022-09-24T03:55:12.576Z,17.60
2022-09-24T03:57:41.314Z,19.13
2022-09-24T04:00:10.622Z,19.93
2022-09-24T04:02:41.350Z,20.80
2022-09-24T04:05:10.312Z,18.63
2022-09-24T04:07:38.866Z,18.13
2022-09-24T04:10:08.375Z,15.87
2022-09-24T04:12:37.423Z,19.77
2022-09-24T04:15:06.733Z,18.73
2022-09-24T04:17:35.428Z,20.53
2022-09-24T04:20:04.729Z,15.90
2022-09-24T04:22:33.718Z,18.47
2022-09-24T04:25:03.483Z,17.30
2022-09-24T04:27:32.516Z,17.53
2022-09-24T04:30:01.552Z,19.63
2022-09-24T04:32:30.601Z,21.47
2022-09-24T04:35:00.355Z,19.47
2022-09-24T04:37:32.598Z,19.67
2022-09-24T04:40:01.851Z,22.30
2022-09-24T04:42:30.911Z,18.87
2022-09-24T04:44:58.935Z,18.63
2022-09-24T04:47:26.726Z,17.00
2022-09-24T04:49:55.990Z,20.50
2022-09-24T04:52:27.759Z,20.47
2022-09-24T04:54:58.767Z,22.07
2022-09-24T04:57:28.814Z,20.50
2022-09-24T04:59:57.876Z,19.70
2022-09-24T05:02:27.233Z,20.37
2022-09-24T05:04:56.112Z,21.20
2022-09-24T05:07:25.133Z,21.23
2022-09-24T05:09:53.183Z,21.67
2022-09-24T05:12:22.185Z,19.80
2022-09-24T05:14:51.211Z,21.27
2022-09-24T05:17:19.247Z,17.27
2022-09-24T05:19:48.268Z,18.33
2022-09-24T05:22:17.585Z,19.83
2022-09-24T05:24:46.273Z,24.37
2022-09-24T05:27:15.069Z,23.60
2022-09-24T05:29:45.132Z,23.80
2022-09-24T05:32:17.043Z,24.17
2022-09-24T05:34:46.450Z,26.93
2022-09-24T05:37:18.011Z,23.53
2022-09-24T05:39:47.206Z,27.10
2022-09-24T05:42:16.217Z,22.83
2022-09-24T05:44:48.648Z,25.90
2022-09-24T05:47:21.218Z,24.47
2022-09-24T05:49:50.646Z,25.00
2022-09-24T05:52:19.272Z,22.67
2022-09-24T05:54:48.291Z,24.23
2022-09-24T05:57:17.569Z,23.43
2022-09-24T05:59:46.601Z,26.07
2022-09-24T06:02:15.969Z,24.47
2022-09-24T06:04:44.375Z,21.07
2022-09-24T06:07:12.666Z,22.43
2022-09-24T06:09:40.740Z,30.47
2022-09-24T06:12:11.461Z,25.87
2022-09-24T06:14:40.512Z,22.57
2022-09-24T06:17:09.815Z,25.83
2022-09-24T06:19:37.860Z,30.17
2022-09-24T06:22:06.863Z,21.87
2022-09-24T06:24:35.608Z,23.17
2022-09-24T06:27:04.592Z,25.93
2022-09-24T06:29:35.161Z,23.50
2022-09-24T06:32:03.664Z,26.43
2022-09-24T06:34:32.228Z,31.83
2022-09-24T06:36:59.984Z,25.33
2022-09-24T06:39:28.968Z,24.90
2022-09-24T06:41:59.658Z,25.53
2022-09-24T06:44:32.798Z,25.27
2022-09-24T06:47:02.803Z,25.40
2022-09-24T06:49:34.220Z,25.63
2022-09-24T06:52:04.405Z,26.00
2022-09-24T06:54:32.851Z,25.20
2022-09-24T06:57:01.099Z,23.93
2022-09-24T06:59:30.455Z,27.33
2022-09-24T07:02:00.010Z,26.43
2022-09-24T07:04:28.955Z,23.70
2022-09-24T07:07:16.006Z,24.30
2022-09-24T07:09:44.555Z,23.23
2022-09-24T07:12:13.543Z,23.33
2022-09-24T07:14:42.053Z,24.40
2022-09-24T07:17:10.306Z,22.23
2022-09-24T07:19:39.607Z,22.93
2022-09-24T07:22:08.093Z,26.07
2022-09-24T07:24:36.679Z,22.70
2022-09-24T07:27:12.384Z,28.03
2022-09-24T07:29:41.418Z,23.37
2022-09-24T07:32:10.717Z,22.97
2022-09-24T07:34:39.191Z,23.03
2022-09-24T07:37:07.788Z,21.90
2022-09-24T07:39:36.288Z,26.03
2022-09-24T07:42:06.320Z,25.90
2022-09-24T07:44:37.612Z,25.80
2022-09-24T07:47:05.559Z,24.13
2022-09-24T07:49:36.253Z,24.10
2022-09-24T07:52:05.402Z,24.73
2022-09-24T07:54:34.720Z,22.43
2022-09-24T07:57:04.953Z,26.00
2022-09-24T07:59:38.876Z,21.50
2022-09-24T08:02:19.391Z,24.87
2022-09-24T08:04:49.704Z,21.13
2022-09-24T08:07:19.506Z,25.03
2022-09-24T08:09:48.521Z,21.67
2022-09-24T08:12:17.607Z,21.60
2022-09-24T08:14:46.569Z,22.70
2022-09-24T08:17:15.574Z,24.63
2022-09-24T08:19:47.498Z,19.73
2022-09-24T08:22:16.649Z,22.33
2022-09-24T08:24:46.886Z,23.13
2022-09-24T08:27:17.499Z,21.00
2022-09-24T08:29:46.720Z,19.37
2022-09-24T08:32:14.802Z,21.73
2022-09-24T08:34:43.784Z,19.47
2022-09-24T08:37:15.278Z,19.90
2022-09-24T08:39:45.766Z,22.47
2022-09-24T08:42:36.905Z,19.43
2022-09-24T08:45:24.880Z,22.77
2022-09-24T08:47:56.091Z,20.47
2022-09-24T08:50:33.882Z,21.23
2022-09-24T08:53:05.451Z,23.77
2022-09-24T08:55:49.952Z,20.70
2022-09-24T08:58:44.514Z,23.10
2022-09-24T09:01:13.294Z,22.03
2022-09-24T09:03:59.914Z,18.73
2022-09-24T09:06:49.351Z,22.57
2022-09-24T09:09:33.022Z,20.63
2022-09-24T09:12:05.104Z,19.23
2022-09-24T09:15:06.351Z,23.63
2022-09-24T09:17:56.179Z,21.23
2022-09-24T09:20:37.212Z,20.93
2022-09-24T09:23:22.495Z,22.87
2022-09-24T09:26:01.246Z,21.57
2022-09-24T09:28:32.211Z,22.63
2022-09-24T09:31:31.305Z,21.13
2022-09-24T09:34:23.297Z,29.33
2022-09-24T09:37:26.294Z,21.63
2022-09-24T09:40:01.905Z,22.43
2022-09-24T09:42:36.446Z,24.03
2022-09-24T09:45:48.704Z,23.90
2022-09-24T09:48:20.398Z,25.30
2022-09-24T09:50:53.380Z,22.03
2022-09-24T09:53:26.445Z,24.87
2022-09-24T09:55:57.426Z,23.27
2022-09-24T09:58:57.466Z,24.23
2022-09-24T10:01:33.499Z,18.80
2022-09-24T10:04:07.615Z,22.30
2022-09-24T10:06:37.793Z,20.23
2022-09-24T10:09:23.090Z,25.27
2022-09-24T10:11:51.600Z,19.43
2022-09-24T10:14:21.601Z,19.67
2022-09-24T10:16:54.936Z,21.27
2022-09-24T10:19:26.629Z,19.63
2022-09-24T10:21:58.685Z,23.10
2022-09-24T10:24:28.722Z,23.90
2022-09-24T10:26:59.358Z,20.27
2022-09-24T10:29:51.190Z,21.57
2022-09-24T10:32:24.836Z,18.43
2022-09-24T10:35:02.802Z,20.50
2022-09-24T10:37:32.076Z,19.20
2022-09-24T10:40:16.214Z,17.60
2022-09-24T10:42:45.106Z,17.20
2022-09-24T10:45:15.876Z,18.00
2022-09-24T10:47:58.781Z,18.17
2022-09-24T10:50:44.328Z,14.83
2022-09-24T10:53:21.311Z,17.87
2022-09-24T10:55:56.097Z,16.17
2022-09-24T10:58:52.991Z,18.30
2022-09-24T11:01:50.471Z,17.80
2022-09-24T11:04:38.715Z,20.20
2022-09-24T11:07:26.407Z,20.43
2022-09-24T11:10:46.385Z,15.27
2022-09-24T11:13:22.149Z,19.83
2022-09-24T11:16:10.164Z,17.23
2022-09-24T11:18:47.206Z,19.20
2022-09-24T11:21:58.224Z,19.50
2022-09-24T11:24:35.538Z,18.13
2022-09-24T11:27:28.507Z,18.23
2022-09-24T11:30:16.246Z,16.07
2022-09-24T11:33:24.526Z,13.73
2022-09-24T11:36:03.363Z,15.37
2022-09-24T11:38:54.350Z,14.30
2022-09-24T11:41:32.393Z,13.07
2022-09-24T11:44:28.372Z,13.40
2022-09-24T11:47:12.458Z,15.33
2022-09-24T11:50:02.705Z,15.77
2022-09-24T11:52:37.825Z,16.23
2022-09-24T11:55:33.499Z,15.83
2022-09-24T11:58:17.563Z,15.73
2022-09-24T12:01:29.885Z,18.23
2022-09-24T12:04:22.822Z,16.43
2022-09-24T12:06:57.662Z,18.47
2022-09-24T12:09:36.845Z,17.53
2022-09-24T12:12:30.056Z,16.13
2022-09-24T12:15:11.967Z,15.80
2022-09-24T12:17:49.844Z,18.23
2022-09-24T12:20:32.962Z,15.23
2022-09-24T12:23:08.706Z,19.20
2022-09-24T12:25:48.008Z,16.37
2022-09-24T12:28:40.749Z,14.40
2022-09-24T12:32:01.766Z,13.63
2022-09-24T12:34:43.020Z,12.77
2022-09-24T12:37:20.005Z,16.60
2022-09-24T12:39:49.344Z,13.07
2022-09-24T12:42:20.146Z,13.07
2022-09-24T12:44:56.838Z,12.00
2022-09-24T12:47:31.925Z,12.90
2022-09-24T12:50:04.906Z,15.50
2022-09-24T12:52:40.936Z,14.10
2022-09-24T12:55:27.232Z,11.63
2022-09-24T12:58:06.052Z,10.27
2022-09-24T13:00:44.572Z,15.93
2022-09-24T13:03:36.281Z,12.07
2022-09-24T13:06:23.048Z,11.63
2022-09-24T13:08:52.329Z,13.33
2022-09-24T13:11:30.621Z,13.67
2022-09-24T13:14:13.342Z,13.80
2022-09-24T13:16:48.129Z,15.97
2022-09-24T13:19:45.416Z,11.27
2022-09-24T13:22:25.224Z,11.50
2022-09-24T13:25:10.494Z,11.40
2022-09-24T13:27:42.275Z,11.93
2022-09-24T13:30:45.298Z,12.77
2022-09-24T13:33:24.840Z,14.37
2022-09-24T13:36:03.579Z,11.17
2022-09-24T13:38:36.586Z,13.37
2022-09-24T13:41:25.565Z,12.50
2022-09-24T13:44:00.419Z,12.37
2022-09-24T13:46:31.513Z,12.17
2022-09-24T13:49:08.005Z,12.27
2022-09-24T13:51:39.981Z,11.13
2022-09-24T13:54:14.491Z,12.43
2022-09-24T13:56:43.468Z,10.13
2022-09-24T13:59:14.381Z,11.37
2022-09-24T14:01:44.613Z,11.30
2022-09-24T14:04:24.643Z,16.50
2022-09-24T14:06:57.878Z,11.97
2022-09-24T14:09:34.597Z,12.07
2022-09-24T14:12:22.661Z,10.83
2022-09-24T14:14:58.694Z,11.33
2022-09-24T14:17:27.993Z,10.93
2022-09-24T14:19:58.243Z,12.20
2022-09-24T14:22:36.750Z,12.10
2022-09-24T14:25:17.068Z,14.13
2022-09-24T14:27:50.706Z,12.30
2022-09-24T14:30:27.807Z,12.97
2022-09-24T14:33:00.043Z,14.67
2022-09-24T14:35:39.885Z,14.13
2022-09-24T14:38:37.898Z,11.20
2022-09-24T14:41:29.892Z,13.17
2022-09-24T14:44:05.472Z,13.17
2022-09-24T14:46:39.329Z,15.27
2022-09-24T14:49:20.005Z,14.40
2022-09-24T14:52:00.134Z,14.40
2022-09-24T14:54:38.297Z,11.63
2022-09-24T14:57:25.743Z,15.67
2022-09-24T14:59:54.416Z,16.77
2022-09-24T15:02:33.084Z,15.10
2022-09-24T15:05:06.749Z,13.80
2022-09-24T15:07:36.766Z,13.10
2022-09-24T15:10:07.319Z,11.40
2022-09-24T15:12:40.260Z,13.13
2022-09-24T15:15:19.297Z,10.63
2022-09-24T15:17:49.248Z,16.83
2022-09-24T15:20:18.315Z,12.60
2022-09-24T15:22:51.001Z,11.17
2022-09-24T15:25:19.651Z,9.93
2022-09-24T15:27:50.335Z,9.13
2022-09-24T15:30:21.601Z,9.20
2022-09-24T15:32:52.764Z,10.30
2022-09-24T15:35:21.752Z,12.90
2022-09-24T15:37:51.675Z,10.50
2022-09-24T15:40:24.719Z,9.97
2022-09-24T15:42:54.008Z,8.27
2022-09-24T15:45:24.751Z,9.17
2022-09-24T15:47:54.747Z,7.93
2022-09-24T15:50:24.575Z,10.83
2022-09-24T15:52:55.812Z,11.27
2022-09-24T15:55:25.119Z,9.17
2022-09-24T15:57:54.594Z,8.37
2022-09-24T16:00:24.531Z,7.60
2022-09-24T16:02:59.572Z,9.17
2022-09-24T16:05:28.680Z,8.47
2022-09-24T16:07:58.975Z,7.33
2022-09-24T16:10:28.604Z,9.40
2022-09-24T16:12:57.289Z,9.57
2022-09-24T16:15:26.860Z,9.43
2022-09-24T16:17:55.828Z,9.17
2022-09-24T16:20:24.835Z,7.20
2022-09-24T16:22:52.959Z,10.20
2022-09-24T16:25:21.950Z,8.67
2022-09-24T16:27:52.102Z,9.87
2022-09-24T16:30:21.118Z,8.53
2022-09-24T16:32:49.187Z,10.80
2022-09-24T16:35:18.182Z,9.33
2022-09-24T16:37:47.972Z,9.93
2022-09-24T16:40:17.079Z,7.47
2022-09-24T16:42:46.073Z,8.63
2022-09-24T16:45:15.056Z,9.67
2022-09-24T16:47:43.058Z,9.40
2022-09-24T16:50:12.111Z,10.13
2022-09-24T16:52:41.125Z,9.63
2022-09-24T16:55:10.139Z,12.00
2022-09-24T16:57:39.404Z,8.73
2022-09-24T17:00:11.176Z,11.90
2022-09-24T17:02:40.250Z,9.50
2022-09-24T17:05:09.469Z,9.93
2022-09-24T17:07:38.475Z,9.63
2022-09-24T17:10:13.321Z,10.63
2022-09-24T17:12:53.107Z,11.67
2022-09-24T17:15:22.321Z,9.97
2022-09-24T17:17:51.372Z,10.70
2022-09-24T17:20:20.383Z,13.23
2022-09-24T17:22:50.605Z,11.27
2022-09-24T17:25:20.229Z,11.10
2022-09-24T17:27:49.404Z,13.67
2022-09-24T17:30:18.775Z,13.20
2022-09-24T17:32:48.681Z,13.67
2022-09-24T17:35:19.428Z,12.77
2022-09-24T17:37:48.458Z,13.60
2022-09-24T17:40:23.680Z,10.87
2022-09-24T17:42:53.546Z,12.73
2022-09-24T17:45:22.590Z,11.97
2022-09-24T17:47:58.570Z,12.77
2022-09-24T17:50:28.837Z,12.37
2022-09-24T17:52:59.431Z,15.77
2022-09-24T17:55:28.652Z,14.10
2022-09-24T17:57:57.681Z,12.73
2022-09-24T18:00:27.890Z,11.93
2022-09-24T18:02:57.010Z,11.50
2022-09-24T18:05:26.245Z,18.87
2022-09-24T18:07:54.736Z,13.90
2022-09-24T18:10:23.307Z,14.47
2022-09-24T18:12:55.027Z,15.50
2022-09-24T18:15:23.741Z,14.77
2022-09-24T18:17:57.865Z,15.57
2022-09-24T18:20:26.881Z,13.03
2022-09-24T18:22:55.892Z,14.47
2022-09-24T18:25:25.208Z,12.47
2022-09-24T18:27:54.191Z,17.00
2022-09-24T18:30:23.179Z,14.37
2022-09-24T18:32:52.855Z,17.60
2022-09-24T18:35:21.539Z,14.80
2022-09-24T18:37:50.530Z,17.10
2022-09-24T18:40:39.369Z,14.10
2022-09-24T18:43:15.220Z,15.27
2022-09-24T18:45:50.301Z,15.80
2022-09-24T18:48:33.355Z,18.17
2022-09-24T18:51:05.992Z,19.03
2022-09-24T18:53:36.397Z,18.43
2022-09-24T18:56:13.397Z,12.87
2022-09-24T18:58:53.130Z,15.83
2022-09-24T19:01:25.219Z,17.17
2022-09-24T19:03:58.164Z,16.43
2022-09-24T19:06:31.835Z,16.77
2022-09-24T19:09:06.282Z,19.83
2022-09-24T19:11:40.484Z,14.97
2022-09-24T19:14:13.837Z,17.20
2022-09-24T19:16:57.264Z,15.63
2022-09-24T19:19:29.529Z,19.23
2022-09-24T19:22:01.398Z,24.83
2022-09-24T19:24:34.582Z,19.30
2022-09-24T19:27:07.247Z,23.33
2022-09-24T19:29:39.761Z,18.47
2022-09-24T19:32:13.551Z,19.50
2022-09-24T19:34:45.106Z,18.73
2022-09-24T19:37:21.812Z,20.87
2022-09-24T19:39:58.144Z,17.93
2022-09-24T19:42:28.640Z,16.07
2022-09-24T19:45:00.349Z,17.77
2022-09-24T19:47:32.345Z,15.67
2022-09-24T19:50:15.066Z,16.47
2022-09-24T19:52:53.350Z,16.20
2022-09-24T19:55:27.636Z,19.23
2022-09-24T19:57:58.396Z,14.07
2022-09-24T20:00:26.953Z,12.97
2022-09-24T20:02:55.709Z,15.13
2022-09-24T20:05:24.950Z,12.60
2022-09-24T20:07:54.448Z,11.17
2022-09-24T20:10:24.722Z,9.20
2022-09-24T20:12:55.451Z,5.97
2022-09-24T20:15:24.524Z,15.40
2022-09-24T20:17:54.495Z,7.20
2022-09-24T20:20:25.128Z,4.57
2022-09-24T20:22:54.547Z,5.73
2022-09-24T20:25:45.457Z,9.17
2022-09-24T20:28:18.612Z,7.60
2022-09-24T20:30:47.724Z,10.87
2022-09-24T20:33:17.904Z,4.97
2022-09-24T20:35:48.668Z,6.13
2022-09-24T20:38:17.749Z,8.77
2022-09-24T20:40:51.259Z,9.20
2022-09-24T20:43:22.828Z,8.43
2022-09-24T20:45:58.883Z,10.27
2022-09-24T20:48:30.030Z,4.80
2022-09-24T20:50:58.086Z,6.23
2022-09-24T20:53:31.886Z,10.13
2022-09-24T20:56:05.965Z,9.73
2022-09-24T20:58:36.105Z,10.77
2022-09-24T21:01:05.868Z,6.30
2022-09-24T21:03:44.832Z,6.63
2022-09-24T21:06:15.952Z,9.57
2022-09-24T21:08:47.502Z,9.43
2022-09-24T21:11:21.961Z,7.60
2022-09-24T21:13:56.850Z,6.70
2022-09-24T21:16:28.285Z,10.53
2022-09-24T21:18:57.300Z,7.13
2022-09-24T21:21:29.328Z,5.00
2022-09-24T21:24:07.884Z,6.23
2022-09-24T21:26:41.141Z,6.60
2022-09-24T21:29:17.118Z,5.63
2022-09-24T21:31:48.688Z,8.87
2022-09-24T21:34:22.067Z,11.40
2022-09-24T21:36:54.132Z,8.17
2022-09-24T21:39:24.221Z,9.53
2022-09-24T21:41:56.255Z,6.23
2022-09-24T21:44:25.574Z,10.33
2022-09-24T21:46:54.294Z,7.47
2022-09-24T21:49:23.313Z,7.50
2022-09-24T21:51:57.486Z,10.57
2022-09-24T21:54:26.345Z,6.23
2022-09-24T21:56:55.345Z,13.33
2022-09-24T21:59:41.647Z,9.10
2022-09-24T22:02:11.617Z,8.47
2022-09-24T22:04:41.438Z,10.47
2022-09-24T22:07:10.430Z,8.67
2022-09-24T22:09:39.463Z,10.80
2022-09-24T22:12:09.740Z,11.30
2022-09-24T22:14:47.361Z,6.43
2022-09-24T22:17:22.754Z,8.73
2022-09-24T22:19:56.103Z,9.90
2022-09-24T22:22:31.828Z,9.03
2022-09-24T22:25:17.093Z,6.77
2022-09-24T22:27:50.940Z,8.87
2022-09-24T22:30:31.577Z,10.10
2022-09-24T22:33:08.009Z,11.27
2022-09-24T22:35:54.761Z,8.73
2022-09-24T22:38:30.271Z,11.67
2022-09-24T22:41:10.018Z,8.73
2022-09-24T22:43:57.144Z,9.87
2022-09-24T22:46:29.789Z,6.13
2022-09-24T22:49:02.833Z,9.80
2022-09-24T22:51:38.788Z,15.27
2022-09-24T22:54:15.790Z,9.73
2022-09-24T22:56:57.884Z,10.63
2022-09-24T22:59:27.837Z,9.80
2022-09-24T23:02:02.157Z,8.37
2022-09-24T23:04:42.245Z,8.07
2022-09-24T23:07:21.526Z,11.90
2022-09-24T23:09:56.657Z,14.40
2022-09-24T23:12:31.333Z,9.00
2022-09-24T23:15:06.134Z,13.87
2022-09-24T23:17:43.729Z,7.53
2022-09-24T23:20:19.193Z,7.93
2022-09-24T23:22:52.543Z,6.70
2022-09-24T23:25:25.921Z,9.80
2022-09-24T23:28:00.287Z,10.23
2022-09-24T23:30:46.693Z,6.97
2022-09-24T23:33:27.849Z,6.80
2022-09-24T23:36:04.423Z,11.27
2022-09-24T23:38:45.091Z,9.73
2022-09-24T23:41:26.298Z,8.97
2022-09-24T23:43:58.175Z,11.47
2022-09-24T23:46:28.159Z,10.60
2022-09-24T23:49:06.049Z,8.47
2022-09-24T23:51:35.293Z,7.37
2022-09-24T23:54:17.179Z,6.10
2022-09-24T23:56:56.333Z,6.30
2022-09-24T23:59:32.388Z,11.33
